Portada
METAR-TAF:

METAR-TAF

Aeropuertos :

Tenerife, España

Aeropuerto de Tenerife Norte

latitud: 28-28N, longitud: 016-19W, altitud: 632 m

Observación

El informe se hizo hace 29 minutos, a las 01:30 UTC
Viento 12 kt del oeste
Temperatura 24°C
Humedad 29%
Presión 1021 hPa
Visibilidad 10 km o más

METAR: GCXO 240130Z AUTO 28012KT 9999 NCD 24/05 Q1021

Hora: 02:59 (01:59 UTC)

Pronóstico

El informe se hizo hace 9 horas y 20 minutos, a las 16:39 UTC
Pronóstico válido del 23 a las 16 UTC al 24 a las 15 UTC
Viento 5 kt con dirección variable
Visibilidad 10 km o más
Escasas nubes a una altura de 2000 ft
Evolucionando progresivamente
del 23 a las 19 UTC al 23 a las 21 UTC
Viento 10 kt del oeste-noroeste

TAF: GCXO 231639Z 2316/2415 VRB05KT 9999 FEW020 TX33/2413Z TN23/2405Z BECMG 2319/2321 30010KT

Observaciones y pronósticos meteorológicos de más de 4000 aeropuertos (mensajes METAR y TAF).

Los puntos amarillos y rojos representan las estaciones disponibles.

Ponga el ratón en el punto deseado para ver el nombre de la estación.

Haga clic para ver las observaciones y los pronósticos meteorológicos.

Para cambiar el mapa : haga clic en los botones verdes con una cruz de color negro para hacer un zoom, en el botón verde con un guión para alejar o en las flechas verdes para mapas adyacentes.


METAR-TAF: